sensor_id;sensor_type;location;lat;lon;timestamp;P1;durP1;ratioP1;P2;durP2;ratioP2
80237;SDS011;69544;42.138;24.742;2023-04-24T00:00:10;3.33;;;2.60;;
80237;SDS011;69544;42.138;24.742;2023-04-24T00:02:39;3.78;;;2.60;;
80237;SDS011;69544;42.138;24.742;2023-04-24T00:05:06;3.35;;;2.55;;
80237;SDS011;69544;42.138;24.742;2023-04-24T00:07:33;5.35;;;2.80;;
80237;SDS011;69544;42.138;24.742;2023-04-24T00:09:59;4.07;;;2.90;;
80237;SDS011;69544;42.138;24.742;2023-04-24T00:12:25;4.00;;;2.58;;
80237;SDS011;69544;42.138;24.742;2023-04-24T00:14:51;4.13;;;2.80;;
80237;SDS011;69544;42.138;24.742;2023-04-24T00:17:18;4.55;;;2.70;;
80237;SDS011;69544;42.138;24.742;2023-04-24T00:19:46;3.58;;;2.67;;
80237;SDS011;69544;42.138;24.742;2023-04-24T00:22:16;5.07;;;2.67;;
80237;SDS011;69544;42.138;24.742;2023-04-24T00:24:42;4.25;;;2.85;;
80237;SDS011;69544;42.138;24.742;2023-04-24T00:27:08;4.25;;;2.70;;
80237;SDS011;69544;42.138;24.742;2023-04-24T00:29:34;4.28;;;2.70;;
80237;SDS011;69544;42.138;24.742;2023-04-24T00:32:00;3.80;;;2.72;;
80237;SDS011;69544;42.138;24.742;2023-04-24T00:34:25;4.32;;;2.75;;
80237;SDS011;69544;42.138;24.742;2023-04-24T00:36:51;3.72;;;2.53;;
80237;SDS011;69544;42.138;24.742;2023-04-24T00:39:20;3.65;;;2.60;;
80237;SDS011;69544;42.138;24.742;2023-04-24T00:41:46;3.85;;;2.88;;
80237;SDS011;69544;42.138;24.742;2023-04-24T00:44:13;4.28;;;2.80;;
80237;SDS011;69544;42.138;24.742;2023-04-24T00:46:40;3.50;;;2.53;;
80237;SDS011;69544;42.138;24.742;2023-04-24T00:49:07;4.18;;;3.00;;
80237;SDS011;69544;42.138;24.742;2023-04-24T00:51:32;3.60;;;2.60;;
80237;SDS011;69544;42.138;24.742;2023-04-24T00:53:59;3.55;;;2.42;;
80237;SDS011;69544;42.138;24.742;2023-04-24T00:56:28;3.88;;;2.58;;
80237;SDS011;69544;42.138;24.742;2023-04-24T00:58:53;3.38;;;2.55;;
80237;SDS011;69544;42.138;24.742;2023-04-24T01:01:22;3.53;;;2.53;;
80237;SDS011;69544;42.138;24.742;2023-04-24T01:03:51;4.35;;;3.00;;
80237;SDS011;69544;42.138;24.742;2023-04-24T01:06:18;4.35;;;2.60;;
80237;SDS011;69544;42.138;24.742;2023-04-24T01:08:44;3.47;;;2.67;;
80237;SDS011;69544;42.138;24.742;2023-04-24T01:11:11;3.42;;;2.55;;
80237;SDS011;69544;42.138;24.742;2023-04-24T01:13:39;3.90;;;2.58;;
80237;SDS011;69544;42.138;24.742;2023-04-24T01:16:05;3.28;;;2.50;;
80237;SDS011;69544;42.138;24.742;2023-04-24T01:18:31;4.18;;;2.60;;
80237;SDS011;69544;42.138;24.742;2023-04-24T01:20:58;4.35;;;2.72;;
80237;SDS011;69544;42.138;24.742;2023-04-24T01:23:25;5.25;;;2.90;;
80237;SDS011;69544;42.138;24.742;2023-04-24T01:25:51;3.63;;;2.78;;
80237;SDS011;69544;42.138;24.742;2023-04-24T01:28:17;3.88;;;2.70;;
80237;SDS011;69544;42.138;24.742;2023-04-24T01:30:44;4.32;;;2.80;;
80237;SDS011;69544;42.138;24.742;2023-04-24T01:33:09;3.63;;;2.80;;
80237;SDS011;69544;42.138;24.742;2023-04-24T01:35:36;3.42;;;2.80;;
80237;SDS011;69544;42.138;24.742;2023-04-24T01:38:02;3.13;;;2.70;;
80237;SDS011;69544;42.138;24.742;2023-04-24T01:40:29;5.22;;;2.70;;
80237;SDS011;69544;42.138;24.742;2023-04-24T01:42:55;4.72;;;2.70;;
80237;SDS011;69544;42.138;24.742;2023-04-24T01:45:22;4.03;;;2.80;;
80237;SDS011;69544;42.138;24.742;2023-04-24T01:47:48;3.67;;;2.50;;
80237;SDS011;69544;42.138;24.742;2023-04-24T01:50:15;3.97;;;2.85;;
80237;SDS011;69544;42.138;24.742;2023-04-24T01:52:41;3.55;;;2.75;;
80237;SDS011;69544;42.138;24.742;2023-04-24T01:55:06;4.10;;;2.70;;
80237;SDS011;69544;42.138;24.742;2023-04-24T01:57:33;3.92;;;2.80;;
80237;SDS011;69544;42.138;24.742;2023-04-24T01:59:59;3.53;;;2.80;;
80237;SDS011;69544;42.138;24.742;2023-04-24T02:02:25;4.07;;;2.80;;
80237;SDS011;69544;42.138;24.742;2023-04-24T02:04:54;4.93;;;2.90;;
80237;SDS011;69544;42.138;24.742;2023-04-24T02:07:20;5.47;;;2.83;;
80237;SDS011;69544;42.138;24.742;2023-04-24T02:09:46;3.60;;;2.65;;
80237;SDS011;69544;42.138;24.742;2023-04-24T02:12:12;4.30;;;2.80;;
80237;SDS011;69544;42.138;24.742;2023-04-24T02:14:38;4.90;;;3.03;;
80237;SDS011;69544;42.138;24.742;2023-04-24T02:17:04;4.47;;;3.05;;
80237;SDS011;69544;42.138;24.742;2023-04-24T02:19:30;3.58;;;2.70;;
80237;SDS011;69544;42.138;24.742;2023-04-24T02:21:56;4.55;;;2.85;;
80237;SDS011;69544;42.138;24.742;2023-04-24T02:24:21;4.63;;;2.97;;
80237;SDS011;69544;42.138;24.742;2023-04-24T02:26:47;4.57;;;3.00;;
80237;SDS011;69544;42.138;24.742;2023-04-24T02:29:13;3.22;;;2.47;;
80237;SDS011;69544;42.138;24.742;2023-04-24T02:31:38;4.97;;;2.75;;
80237;SDS011;69544;42.138;24.742;2023-04-24T02:34:04;4.03;;;2.67;;
80237;SDS011;69544;42.138;24.742;2023-04-24T02:36:30;4.28;;;2.97;;
80237;SDS011;69544;42.138;24.742;2023-04-24T02:38:56;4.60;;;3.10;;
80237;SDS011;69544;42.138;24.742;2023-04-24T02:41:22;6.05;;;3.00;;
80237;SDS011;69544;42.138;24.742;2023-04-24T02:43:47;4.93;;;2.80;;
80237;SDS011;69544;42.138;24.742;2023-04-24T02:46:13;3.63;;;2.90;;
80237;SDS011;69544;42.138;24.742;2023-04-24T02:48:39;5.55;;;3.00;;
80237;SDS011;69544;42.138;24.742;2023-04-24T02:51:05;4.65;;;2.90;;
80237;SDS011;69544;42.138;24.742;2023-04-24T02:53:31;3.72;;;2.72;;
80237;SDS011;69544;42.138;24.742;2023-04-24T02:55:57;4.93;;;2.80;;
80237;SDS011;69544;42.138;24.742;2023-04-24T02:58:23;4.25;;;3.03;;
80237;SDS011;69544;42.138;24.742;2023-04-24T03:00:54;4.18;;;3.10;;
80237;SDS011;69544;42.138;24.742;2023-04-24T03:03:22;4.57;;;2.70;;
80237;SDS011;69544;42.138;24.742;2023-04-24T03:05:49;4.60;;;2.85;;
80237;SDS011;69544;42.138;24.742;2023-04-24T03:08:15;3.92;;;2.80;;
80237;SDS011;69544;42.138;24.742;2023-04-24T03:10:41;3.83;;;2.78;;
80237;SDS011;69544;42.138;24.742;2023-04-24T03:13:06;5.05;;;3.00;;
80237;SDS011;69544;42.138;24.742;2023-04-24T03:15:32;6.18;;;2.90;;
80237;SDS011;69544;42.138;24.742;2023-04-24T03:17:58;4.15;;;3.00;;
80237;SDS011;69544;42.138;24.742;2023-04-24T03:20:26;4.53;;;3.08;;
80237;SDS011;69544;42.138;24.742;2023-04-24T03:22:52;5.43;;;2.90;;
80237;SDS011;69544;42.138;24.742;2023-04-24T03:25:17;3.80;;;2.67;;
80237;SDS011;69544;42.138;24.742;2023-04-24T03:27:43;4.03;;;2.90;;
80237;SDS011;69544;42.138;24.742;2023-04-24T03:30:09;4.28;;;2.85;;
80237;SDS011;69544;42.138;24.742;2023-04-24T03:32:35;4.05;;;2.88;;
80237;SDS011;69544;42.138;24.742;2023-04-24T03:35:01;4.00;;;2.75;;
80237;SDS011;69544;42.138;24.742;2023-04-24T03:37:28;4.28;;;2.65;;
80237;SDS011;69544;42.138;24.742;2023-04-24T03:39:53;4.40;;;2.85;;
80237;SDS011;69544;42.138;24.742;2023-04-24T03:42:19;5.85;;;3.00;;
80237;SDS011;69544;42.138;24.742;2023-04-24T03:44:45;5.25;;;2.97;;
80237;SDS011;69544;42.138;24.742;2023-04-24T03:47:11;5.60;;;3.28;;
80237;SDS011;69544;42.138;24.742;2023-04-24T03:49:36;4.32;;;2.83;;
80237;SDS011;69544;42.138;24.742;2023-04-24T03:52:02;3.85;;;3.03;;
80237;SDS011;69544;42.138;24.742;2023-04-24T03:54:30;3.90;;;2.70;;
80237;SDS011;69544;42.138;24.742;2023-04-24T03:56:59;4.50;;;3.15;;
80237;SDS011;69544;42.138;24.742;2023-04-24T03:59:25;4.18;;;2.85;;
80237;SDS011;69544;42.138;24.742;2023-04-24T04:01:53;4.68;;;3.03;;
80237;SDS011;69544;42.138;24.742;2023-04-24T04:04:19;3.72;;;2.72;;
80237;SDS011;69544;42.138;24.742;2023-04-24T04:06:45;13.77;;;7.05;;
80237;SDS011;69544;42.138;24.742;2023-04-24T04:09:11;20.33;;;8.20;;
80237;SDS011;69544;42.138;24.742;2023-04-24T04:11:37;24.45;;;8.70;;
80237;SDS011;69544;42.138;24.742;2023-04-24T04:14:03;23.35;;;8.15;;
80237;SDS011;69544;42.138;24.742;2023-04-24T04:16:29;26.15;;;8.80;;
80237;SDS011;69544;42.138;24.742;2023-04-24T04:18:54;26.10;;;9.57;;
80237;SDS011;69544;42.138;24.742;2023-04-24T04:21:20;23.27;;;9.60;;
80237;SDS011;69544;42.138;24.742;2023-04-24T04:23:46;18.55;;;8.65;;
80237;SDS011;69544;42.138;24.742;2023-04-24T04:26:13;20.17;;;9.10;;
80237;SDS011;69544;42.138;24.742;2023-04-24T04:28:38;21.95;;;9.18;;
80237;SDS011;69544;42.138;24.742;2023-04-24T04:31:04;23.77;;;8.15;;
80237;SDS011;69544;42.138;24.742;2023-04-24T04:33:32;21.58;;;9.02;;
80237;SDS011;69544;42.138;24.742;2023-04-24T04:35:58;18.65;;;9.20;;
80237;SDS011;69544;42.138;24.742;2023-04-24T04:38:25;21.48;;;9.38;;
80237;SDS011;69544;42.138;24.742;2023-04-24T04:40:54;31.75;;;9.55;;
80237;SDS011;69544;42.138;24.742;2023-04-24T04:43:22;24.67;;;10.35;;
80237;SDS011;69544;42.138;24.742;2023-04-24T04:45:49;22.08;;;9.77;;
80237;SDS011;69544;42.138;24.742;2023-04-24T04:48:17;26.42;;;10.25;;
80237;SDS011;69544;42.138;24.742;2023-04-24T04:50:43;22.20;;;10.43;;
80237;SDS011;69544;42.138;24.742;2023-04-24T04:53:09;15.48;;;9.70;;
80237;SDS011;69544;42.138;24.742;2023-04-24T04:55:35;22.40;;;10.80;;
80237;SDS011;69544;42.138;24.742;2023-04-24T04:58:01;26.67;;;10.02;;
80237;SDS011;69544;42.138;24.742;2023-04-24T05:00:27;24.52;;;10.43;;
80237;SDS011;69544;42.138;24.742;2023-04-24T05:02:58;23.67;;;10.30;;
80237;SDS011;69544;42.138;24.742;2023-04-24T05:05:24;26.20;;;11.20;;
80237;SDS011;69544;42.138;24.742;2023-04-24T05:07:53;25.75;;;11.07;;
80237;SDS011;69544;42.138;24.742;2023-04-24T05:10:18;24.95;;;10.85;;
80237;SDS011;69544;42.138;24.742;2023-04-24T05:12:44;18.27;;;11.73;;
80237;SDS011;69544;42.138;24.742;2023-04-24T05:15:10;27.63;;;10.38;;
80237;SDS011;69544;42.138;24.742;2023-04-24T05:17:36;23.23;;;10.48;;
80237;SDS011;69544;42.138;24.742;2023-04-24T05:20:02;21.95;;;10.57;;
80237;SDS011;69544;42.138;24.742;2023-04-24T05:22:31;32.05;;;10.65;;
80237;SDS011;69544;42.138;24.742;2023-04-24T05:24:57;24.85;;;10.25;;
80237;SDS011;69544;42.138;24.742;2023-04-24T05:27:23;33.55;;;10.18;;
80237;SDS011;69544;42.138;24.742;2023-04-24T05:29:49;18.90;;;9.25;;
80237;SDS011;69544;42.138;24.742;2023-04-24T05:32:22;34.30;;;10.73;;
80237;SDS011;69544;42.138;24.742;2023-04-24T05:34:48;27.42;;;10.15;;
80237;SDS011;69544;42.138;24.742;2023-04-24T05:37:14;32.28;;;9.93;;
80237;SDS011;69544;42.138;24.742;2023-04-24T05:39:40;26.48;;;10.10;;
80237;SDS011;69544;42.138;24.742;2023-04-24T05:42:06;22.23;;;9.63;;
80237;SDS011;69544;42.138;24.742;2023-04-24T05:44:34;23.42;;;9.75;;
80237;SDS011;69544;42.138;24.742;2023-04-24T05:47:00;31.75;;;9.45;;
80237;SDS011;69544;42.138;24.742;2023-04-24T05:49:26;24.67;;;10.32;;
80237;SDS011;69544;42.138;24.742;2023-04-24T05:51:52;26.73;;;9.20;;
80237;SDS011;69544;42.138;24.742;2023-04-24T05:54:18;27.70;;;9.18;;
80237;SDS011;69544;42.138;24.742;2023-04-24T05:56:51;23.55;;;8.38;;
80237;SDS011;69544;42.138;24.742;2023-04-24T05:59:16;24.00;;;8.93;;
80237;SDS011;69544;42.138;24.742;2023-04-24T06:01:42;26.42;;;8.77;;
80237;SDS011;69544;42.138;24.742;2023-04-24T06:04:08;29.52;;;9.35;;
80237;SDS011;69544;42.138;24.742;2023-04-24T06:06:34;28.30;;;9.43;;
80237;SDS011;69544;42.138;24.742;2023-04-24T06:09:02;26.13;;;8.52;;
80237;SDS011;69544;42.138;24.742;2023-04-24T06:11:28;29.10;;;9.23;;
80237;SDS011;69544;42.138;24.742;2023-04-24T06:13:54;22.33;;;9.25;;
80237;SDS011;69544;42.138;24.742;2023-04-24T06:16:20;24.58;;;8.10;;
80237;SDS011;69544;42.138;24.742;2023-04-24T06:18:45;22.95;;;7.38;;
80237;SDS011;69544;42.138;24.742;2023-04-24T06:21:15;26.73;;;7.50;;
80237;SDS011;69544;42.138;24.742;2023-04-24T06:23:41;21.15;;;6.78;;
80237;SDS011;69544;42.138;24.742;2023-04-24T06:26:07;15.55;;;6.30;;
80237;SDS011;69544;42.138;24.742;2023-04-24T06:28:33;18.92;;;6.55;;
80237;SDS011;69544;42.138;24.742;2023-04-24T06:30:58;13.90;;;5.95;;
80237;SDS011;69544;42.138;24.742;2023-04-24T06:33:24;13.30;;;5.70;;
80237;SDS011;69544;42.138;24.742;2023-04-24T06:35:49;19.20;;;5.95;;
80237;SDS011;69544;42.138;24.742;2023-04-24T06:38:15;18.77;;;6.30;;
80237;SDS011;69544;42.138;24.742;2023-04-24T06:40:41;24.45;;;5.95;;
80237;SDS011;69544;42.138;24.742;2023-04-24T06:43:06;16.30;;;5.70;;
80237;SDS011;69544;42.138;24.742;2023-04-24T06:45:32;12.90;;;5.85;;
80237;SDS011;69544;42.138;24.742;2023-04-24T06:47:58;13.88;;;5.80;;
80237;SDS011;69544;42.138;24.742;2023-04-24T06:50:24;14.38;;;5.57;;
80237;SDS011;69544;42.138;24.742;2023-04-24T06:52:52;16.73;;;5.80;;
80237;SDS011;69544;42.138;24.742;2023-04-24T06:55:18;17.10;;;5.53;;
80237;SDS011;69544;42.138;24.742;2023-04-24T06:57:44;14.02;;;5.40;;
80237;SDS011;69544;42.138;24.742;2023-04-24T07:00:10;15.73;;;5.75;;
80237;SDS011;69544;42.138;24.742;2023-04-24T07:02:36;14.80;;;5.43;;
80237;SDS011;69544;42.138;24.742;2023-04-24T07:05:02;13.38;;;5.15;;
80237;SDS011;69544;42.138;24.742;2023-04-24T07:07:29;12.45;;;5.75;;
80237;SDS011;69544;42.138;24.742;2023-04-24T07:09:54;13.70;;;5.63;;
80237;SDS011;69544;42.138;24.742;2023-04-24T07:12:23;15.02;;;5.75;;
80237;SDS011;69544;42.138;24.742;2023-04-24T07:14:50;9.23;;;4.75;;
80237;SDS011;69544;42.138;24.742;2023-04-24T07:17:15;16.70;;;5.50;;
80237;SDS011;69544;42.138;24.742;2023-04-24T07:19:41;9.20;;;5.32;;
80237;SDS011;69544;42.138;24.742;2023-04-24T07:22:07;11.98;;;4.85;;
80237;SDS011;69544;42.138;24.742;2023-04-24T07:24:32;12.27;;;5.43;;
80237;SDS011;69544;42.138;24.742;2023-04-24T07:26:58;11.05;;;5.50;;
80237;SDS011;69544;42.138;24.742;2023-04-24T07:29:26;10.68;;;5.20;;
80237;SDS011;69544;42.138;24.742;2023-04-24T07:31:52;10.68;;;4.80;;
80237;SDS011;69544;42.138;24.742;2023-04-24T07:34:19;10.48;;;4.95;;
80237;SDS011;69544;42.138;24.742;2023-04-24T07:36:45;10.02;;;4.90;;
80237;SDS011;69544;42.138;24.742;2023-04-24T07:39:11;12.48;;;5.47;;
80237;SDS011;69544;42.138;24.742;2023-04-24T07:41:37;16.77;;;5.07;;
80237;SDS011;69544;42.138;24.742;2023-04-24T07:44:03;11.57;;;5.18;;
80237;SDS011;69544;42.138;24.742;2023-04-24T07:46:29;9.90;;;4.82;;
80237;SDS011;69544;42.138;24.742;2023-04-24T07:48:55;13.77;;;4.88;;
80237;SDS011;69544;42.138;24.742;2023-04-24T07:51:21;10.90;;;5.25;;
80237;SDS011;69544;42.138;24.742;2023-04-24T07:53:47;10.05;;;5.00;;
80237;SDS011;69544;42.138;24.742;2023-04-24T07:56:12;9.23;;;4.80;;
80237;SDS011;69544;42.138;24.742;2023-04-24T07:58:38;9.55;;;4.97;;
80237;SDS011;69544;42.138;24.742;2023-04-24T08:01:04;9.52;;;4.70;;
80237;SDS011;69544;42.138;24.742;2023-04-24T08:03:29;13.23;;;5.60;;
80237;SDS011;69544;42.138;24.742;2023-04-24T08:05:55;10.98;;;5.05;;
80237;SDS011;69544;42.138;24.742;2023-04-24T08:08:21;8.50;;;4.75;;
80237;SDS011;69544;42.138;24.742;2023-04-24T08:10:48;10.35;;;5.05;;
80237;SDS011;69544;42.138;24.742;2023-04-24T08:13:14;10.82;;;4.63;;
80237;SDS011;69544;42.138;24.742;2023-04-24T08:15:40;8.63;;;4.68;;
80237;SDS011;69544;42.138;24.742;2023-04-24T08:18:06;10.60;;;5.38;;
80237;SDS011;69544;42.138;24.742;2023-04-24T08:20:32;7.95;;;4.70;;
80237;SDS011;69544;42.138;24.742;2023-04-24T08:22:58;9.60;;;4.72;;
80237;SDS011;69544;42.138;24.742;2023-04-24T08:25:26;8.65;;;4.63;;
80237;SDS011;69544;42.138;24.742;2023-04-24T08:27:52;7.95;;;5.00;;
80237;SDS011;69544;42.138;24.742;2023-04-24T08:30:18;7.40;;;4.20;;
80237;SDS011;69544;42.138;24.742;2023-04-24T08:32:43;13.93;;;5.32;;
80237;SDS011;69544;42.138;24.742;2023-04-24T08:35:11;11.18;;;4.68;;
80237;SDS011;69544;42.138;24.742;2023-04-24T08:37:37;8.63;;;4.72;;
80237;SDS011;69544;42.138;24.742;2023-04-24T08:40:05;7.25;;;4.28;;
80237;SDS011;69544;42.138;24.742;2023-04-24T08:42:37;7.10;;;4.47;;
80237;SDS011;69544;42.138;24.742;2023-04-24T08:45:03;9.23;;;4.50;;
80237;SDS011;69544;42.138;24.742;2023-04-24T08:47:30;9.95;;;4.65;;
80237;SDS011;69544;42.138;24.742;2023-04-24T08:49:58;9.85;;;4.65;;
80237;SDS011;69544;42.138;24.742;2023-04-24T08:52:25;9.02;;;4.75;;
80237;SDS011;69544;42.138;24.742;2023-04-24T08:54:53;10.57;;;4.50;;
80237;SDS011;69544;42.138;24.742;2023-04-24T08:57:19;10.88;;;4.47;;
80237;SDS011;69544;42.138;24.742;2023-04-24T08:59:45;8.05;;;4.50;;
80237;SDS011;69544;42.138;24.742;2023-04-24T09:02:12;7.30;;;4.38;;
80237;SDS011;69544;42.138;24.742;2023-04-24T09:04:40;10.45;;;4.60;;
80237;SDS011;69544;42.138;24.742;2023-04-24T09:07:06;9.10;;;4.40;;
80237;SDS011;69544;42.138;24.742;2023-04-24T09:09:33;7.30;;;4.53;;
80237;SDS011;69544;42.138;24.742;2023-04-24T09:12:00;7.10;;;4.47;;
80237;SDS011;69544;42.138;24.742;2023-04-24T09:14:27;8.05;;;4.40;;
80237;SDS011;69544;42.138;24.742;2023-04-24T09:16:53;9.52;;;4.10;;
80237;SDS011;69544;42.138;24.742;2023-04-24T09:19:18;7.40;;;4.20;;
80237;SDS011;69544;42.138;24.742;2023-04-24T09:21:46;7.32;;;4.20;;
80237;SDS011;69544;42.138;24.742;2023-04-24T09:24:16;8.40;;;4.40;;
80237;SDS011;69544;42.138;24.742;2023-04-24T09:26:43;9.57;;;4.00;;
80237;SDS011;69544;42.138;24.742;2023-04-24T09:29:16;7.65;;;4.25;;
80237;SDS011;69544;42.138;24.742;2023-04-24T09:31:43;6.15;;;3.90;;
80237;SDS011;69544;42.138;24.742;2023-04-24T09:34:10;7.22;;;4.05;;
80237;SDS011;69544;42.138;24.742;2023-04-24T09:36:39;8.82;;;4.20;;
80237;SDS011;69544;42.138;24.742;2023-04-24T09:39:11;8.32;;;4.10;;
80237;SDS011;69544;42.138;24.742;2023-04-24T09:41:53;6.72;;;4.28;;
80237;SDS011;69544;42.138;24.742;2023-04-24T09:46:53;6.90;;;4.20;;
80237;SDS011;69544;42.138;24.742;2023-04-24T09:49:26;8.65;;;4.15;;
80237;SDS011;69544;42.138;24.742;2023-04-24T09:52:10;6.30;;;4.15;;
80237;SDS011;69544;42.138;24.742;2023-04-24T09:54:36;7.55;;;3.90;;
80237;SDS011;69544;42.138;24.742;2023-04-24T09:57:03;7.15;;;4.05;;
80237;SDS011;69544;42.138;24.742;2023-04-24T09:59:29;6.50;;;4.20;;
80237;SDS011;69544;42.138;24.742;2023-04-24T10:01:59;7.72;;;4.00;;
80237;SDS011;69544;42.138;24.742;2023-04-24T10:04:25;8.13;;;4.07;;
80237;SDS011;69544;42.138;24.742;2023-04-24T10:06:53;6.40;;;4.10;;
80237;SDS011;69544;42.138;24.742;2023-04-24T10:09:22;7.18;;;3.90;;
80237;SDS011;69544;42.138;24.742;2023-04-24T10:11:49;6.97;;;3.90;;
80237;SDS011;69544;42.138;24.742;2023-04-24T10:14:17;6.03;;;4.07;;
80237;SDS011;69544;42.138;24.742;2023-04-24T10:16:45;6.85;;;4.13;;
80237;SDS011;69544;42.138;24.742;2023-04-24T10:19:15;9.77;;;4.18;;
80237;SDS011;69544;42.138;24.742;2023-04-24T10:21:43;6.10;;;4.00;;
80237;SDS011;69544;42.138;24.742;2023-04-24T10:24:13;7.25;;;4.18;;
80237;SDS011;69544;42.138;24.742;2023-04-24T10:26:40;6.75;;;3.90;;
80237;SDS011;69544;42.138;24.742;2023-04-24T10:29:06;7.97;;;4.18;;
80237;SDS011;69544;42.138;24.742;2023-04-24T10:31:35;9.70;;;4.20;;
80237;SDS011;69544;42.138;24.742;2023-04-24T10:34:03;8.50;;;4.18;;
80237;SDS011;69544;42.138;24.742;2023-04-24T10:36:30;6.55;;;3.97;;
80237;SDS011;69544;42.138;24.742;2023-04-24T10:38:58;9.02;;;4.32;;
80237;SDS011;69544;42.138;24.742;2023-04-24T10:41:26;7.50;;;4.07;;
80237;SDS011;69544;42.138;24.742;2023-04-24T10:46:31;8.70;;;4.20;;
80237;SDS011;69544;42.138;24.742;2023-04-24T10:48:57;6.95;;;3.88;;
80237;SDS011;69544;42.138;24.742;2023-04-24T10:51:24;6.82;;;4.20;;
80237;SDS011;69544;42.138;24.742;2023-04-24T10:54:29;6.00;;;3.90;;
80237;SDS011;69544;42.138;24.742;2023-04-24T10:59:50;6.95;;;4.00;;
80237;SDS011;69544;42.138;24.742;2023-04-24T11:02:35;7.70;;;4.18;;
80237;SDS011;69544;42.138;24.742;2023-04-24T11:05:03;5.88;;;3.70;;
80237;SDS011;69544;42.138;24.742;2023-04-24T11:07:29;6.85;;;3.90;;
80237;SDS011;69544;42.138;24.742;2023-04-24T11:09:58;7.03;;;4.00;;
80237;SDS011;69544;42.138;24.742;2023-04-24T11:12:26;8.85;;;3.97;;
80237;SDS011;69544;42.138;24.742;2023-04-24T11:17:37;14.82;;;4.03;;
80237;SDS011;69544;42.138;24.742;2023-04-24T11:20:08;9.23;;;4.13;;
80237;SDS011;69544;42.138;24.742;2023-04-24T11:22:36;15.90;;;3.90;;
80237;SDS011;69544;42.138;24.742;2023-04-24T11:25:07;6.72;;;4.13;;
80237;SDS011;69544;42.138;24.742;2023-04-24T11:27:43;12.02;;;4.45;;
80237;SDS011;69544;42.138;24.742;2023-04-24T11:30:17;6.90;;;3.90;;
80237;SDS011;69544;42.138;24.742;2023-04-24T11:32:43;11.32;;;4.20;;
80237;SDS011;69544;42.138;24.742;2023-04-24T11:35:17;10.50;;;4.22;;
80237;SDS011;69544;42.138;24.742;2023-04-24T11:37:46;8.48;;;4.35;;
80237;SDS011;69544;42.138;24.742;2023-04-24T11:40:15;7.13;;;4.47;;
80237;SDS011;69544;42.138;24.742;2023-04-24T11:42:43;11.82;;;4.20;;
80237;SDS011;69544;42.138;24.742;2023-04-24T11:45:10;7.30;;;4.03;;
80237;SDS011;69544;42.138;24.742;2023-04-24T11:47:37;12.13;;;4.03;;
80237;SDS011;69544;42.138;24.742;2023-04-24T11:50:04;9.43;;;4.15;;
80237;SDS011;69544;42.138;24.742;2023-04-24T11:52:31;6.57;;;3.85;;
80237;SDS011;69544;42.138;24.742;2023-04-24T11:54:59;9.38;;;4.07;;
80237;SDS011;69544;42.138;24.742;2023-04-24T11:57:25;9.98;;;4.18;;
80237;SDS011;69544;42.138;24.742;2023-04-24T11:59:58;10.18;;;4.10;;
80237;SDS011;69544;42.138;24.742;2023-04-24T12:02:28;8.90;;;3.55;;
80237;SDS011;69544;42.138;24.742;2023-04-24T12:04:54;5.82;;;3.97;;
80237;SDS011;69544;42.138;24.742;2023-04-24T12:07:20;7.43;;;3.97;;
80237;SDS011;69544;42.138;24.742;2023-04-24T12:09:47;7.57;;;3.85;;
80237;SDS011;69544;42.138;24.742;2023-04-24T12:12:16;7.00;;;3.88;;
80237;SDS011;69544;42.138;24.742;2023-04-24T12:14:43;8.48;;;3.95;;
80237;SDS011;69544;42.138;24.742;2023-04-24T12:17:17;7.35;;;3.80;;
80237;SDS011;69544;42.138;24.742;2023-04-24T12:19:48;9.52;;;3.50;;
80237;SDS011;69544;42.138;24.742;2023-04-24T12:22:16;6.68;;;3.85;;
80237;SDS011;69544;42.138;24.742;2023-04-24T12:27:36;5.55;;;3.65;;
80237;SDS011;69544;42.138;24.742;2023-04-24T12:30:03;6.65;;;3.58;;
80237;SDS011;69544;42.138;24.742;2023-04-24T12:32:30;6.03;;;3.90;;
80237;SDS011;69544;42.138;24.742;2023-04-24T12:34:57;9.20;;;3.75;;
80237;SDS011;69544;42.138;24.742;2023-04-24T12:37:26;5.93;;;3.78;;
80237;SDS011;69544;42.138;24.742;2023-04-24T12:40:07;6.72;;;3.47;;
80237;SDS011;69544;42.138;24.742;2023-04-24T12:42:35;8.20;;;3.60;;
80237;SDS011;69544;42.138;24.742;2023-04-24T12:45:06;6.68;;;3.55;;
80237;SDS011;69544;42.138;24.742;2023-04-24T12:47:33;6.85;;;3.70;;
80237;SDS011;69544;42.138;24.742;2023-04-24T12:50:00;6.35;;;3.50;;
80237;SDS011;69544;42.138;24.742;2023-04-24T12:52:26;6.63;;;3.67;;
80237;SDS011;69544;42.138;24.742;2023-04-24T12:54:54;5.97;;;3.47;;
80237;SDS011;69544;42.138;24.742;2023-04-24T12:57:24;6.90;;;3.50;;
80237;SDS011;69544;42.138;24.742;2023-04-24T12:59:50;5.53;;;3.10;;
80237;SDS011;69544;42.138;24.742;2023-04-24T13:02:18;4.57;;;3.15;;
80237;SDS011;69544;42.138;24.742;2023-04-24T13:04:44;5.53;;;3.20;;
80237;SDS011;69544;42.138;24.742;2023-04-24T13:07:11;5.78;;;3.40;;
80237;SDS011;69544;42.138;24.742;2023-04-24T13:09:41;5.93;;;3.30;;
80237;SDS011;69544;42.138;24.742;2023-04-24T13:12:08;5.70;;;3.35;;
80237;SDS011;69544;42.138;24.742;2023-04-24T13:14:34;5.82;;;3.00;;
80237;SDS011;69544;42.138;24.742;2023-04-24T13:17:00;4.78;;;3.10;;
80237;SDS011;69544;42.138;24.742;2023-04-24T13:19:27;5.65;;;3.03;;
80237;SDS011;69544;42.138;24.742;2023-04-24T13:21:53;4.97;;;3.20;;
80237;SDS011;69544;42.138;24.742;2023-04-24T13:24:20;5.05;;;3.20;;
80237;SDS011;69544;42.138;24.742;2023-04-24T13:26:49;5.18;;;3.13;;
80237;SDS011;69544;42.138;24.742;2023-04-24T13:29:17;5.82;;;3.33;;
80237;SDS011;69544;42.138;24.742;2023-04-24T13:31:43;5.32;;;3.30;;
80237;SDS011;69544;42.138;24.742;2023-04-24T13:34:09;7.13;;;3.35;;
80237;SDS011;69544;42.138;24.742;2023-04-24T13:36:38;4.10;;;3.10;;
80237;SDS011;69544;42.138;24.742;2023-04-24T13:39:04;4.28;;;3.10;;
80237;SDS011;69544;42.138;24.742;2023-04-24T13:41:30;4.43;;;3.15;;
80237;SDS011;69544;42.138;24.742;2023-04-24T13:43:58;4.78;;;3.20;;
80237;SDS011;69544;42.138;24.742;2023-04-24T13:46:23;6.35;;;3.20;;
80237;SDS011;69544;42.138;24.742;2023-04-24T13:48:49;4.78;;;3.08;;
80237;SDS011;69544;42.138;24.742;2023-04-24T13:51:15;4.70;;;3.10;;
80237;SDS011;69544;42.138;24.742;2023-04-24T13:53:40;5.53;;;3.20;;
80237;SDS011;69544;42.138;24.742;2023-04-24T13:56:06;5.30;;;3.00;;
80237;SDS011;69544;42.138;24.742;2023-04-24T13:58:32;4.15;;;2.95;;
80237;SDS011;69544;42.138;24.742;2023-04-24T14:00:58;5.75;;;3.00;;
80237;SDS011;69544;42.138;24.742;2023-04-24T14:03:24;5.57;;;2.92;;
80237;SDS011;69544;42.138;24.742;2023-04-24T14:05:49;5.20;;;3.22;;
80237;SDS011;69544;42.138;24.742;2023-04-24T14:08:15;5.95;;;3.03;;
80237;SDS011;69544;42.138;24.742;2023-04-24T14:10:42;4.68;;;2.92;;
80237;SDS011;69544;42.138;24.742;2023-04-24T14:13:08;5.35;;;3.20;;
80237;SDS011;69544;42.138;24.742;2023-04-24T14:15:35;6.88;;;3.10;;
80237;SDS011;69544;42.138;24.742;2023-04-24T14:18:01;25.65;;;3.42;;
80237;SDS011;69544;42.138;24.742;2023-04-24T14:20:28;16.63;;;3.10;;
80237;SDS011;69544;42.138;24.742;2023-04-24T14:22:53;9.27;;;3.05;;
80237;SDS011;69544;42.138;24.742;2023-04-24T14:25:19;12.20;;;3.38;;
80237;SDS011;69544;42.138;24.742;2023-04-24T14:27:47;6.28;;;3.17;;
80237;SDS011;69544;42.138;24.742;2023-04-24T14:30:12;9.55;;;3.30;;
80237;SDS011;69544;42.138;24.742;2023-04-24T14:32:40;6.07;;;3.35;;
80237;SDS011;69544;42.138;24.742;2023-04-24T14:35:06;4.38;;;2.97;;
80237;SDS011;69544;42.138;24.742;2023-04-24T14:37:32;8.45;;;3.17;;
80237;SDS011;69544;42.138;24.742;2023-04-24T14:39:57;6.43;;;3.28;;